This is the latest recevied weather packets stored in our database for station/object OK1LPD-6. If no packets are shown the sender has not sent any weather packets the latest 1 day(s).
| Time | Temp. | Humidity | Pressure | Rain* | Wind** | Luminosity | Snow |
|---|---|---|---|---|---|---|---|
| 1778012099 | 18.33° C | 60% | 1005.2 hPa | 0 mm | 0 m/s | - | - |
| 1778011478 | 18.33° C | 57% | 1004.6 hPa | 0 mm | 0 m/s | - | - |
| 1778010878 | 18.33° C | 58% | 1004.5 hPa | 0 mm | 0 m/s | - | - |
| 1778010297 | 18.33° C | 57% | 1004.4 hPa | 0 mm | 0 m/s | - | - |
| 1778009679 | 18.33° C | 61% | 1004.6 hPa | 0 mm | 0 m/s | - | - |
| 1778009078 | 17.78° C | 61% | 1004.2 hPa | 0 mm | 0 m/s | - | - |
| 1778008499 | 17.78° C | 60% | 1003.8 hPa | 0 mm | 0 m/s | - | - |
| 1778007879 | 18.33° C | 58% | 1003.7 hPa | 0 mm | 0 m/s | - | - |
| 1778007279 | 18.33° C | 57% | 1003.9 hPa | 0 mm | 0 m/s | - | - |
| 1778006698 | 18.89° C | 55% | 1003.7 hPa | 0 mm | 0 m/s | - | - |
| 1778006080 | 19.44° C | 53% | 1004 hPa | 0 mm | 0 m/s | - | - |
| 1778005479 | 20° C | 52% | 1003.5 hPa | 0 mm | 0 m/s | - | - |
| 1778004900 | 20.56° C | 50% | 1003.6 hPa | 0 mm | 0 m/s | - | - |
| 1778004280 | 20.56° C | 50% | 1003.6 hPa | 0 mm | 0 m/s | - | - |
| 1778003098 | 20.56° C | 50% | 1003.9 hPa | 0 mm | 0 m/s | - | - |
| 1778002480 | 21.11° C | 50% | 1004.1 hPa | 0 mm | 0 m/s | - | - |
| 1778001879 | 21.11° C | 50% | 1004.1 hPa | 0 mm | 0 m/s | - | - |
| 1778001301 | 21.67° C | 49% | 1004.3 hPa | 0 mm | 0 m/s | - | - |
| 1778000680 | 21.67° C | 48% | 1004.3 hPa | 0 mm | 0 m/s | - | - |
| 1778000080 | 21.67° C | 47% | 1004.5 hPa | 0 mm | 0 m/s | - | - |
| 1777999498 | 22.22° C | 46% | 1004.6 hPa | 0 mm | 0 m/s | - | - |
| 1777998881 | 22.22° C | 45% | 1004.7 hPa | 0 mm | 0 m/s | - | - |
| 1777998281 | 23.33° C | 40% | 1004.5 hPa | 0 mm | 0 m/s | - | - |
| 1777997702 | 24.44° C | 36% | 1004.5 hPa | 0 mm | 0 m/s | - | - |
| 1777997080 | 25° C | 37% | 1004.1 hPa | 0 mm | 0 m/s | - | - |
* Rain latest hour (hover to see other rain measurements)
** Current wind speed in m/s (hover to see current wind gust speed)